sensor_id;sensor_type;location;lat;lon;timestamp;temperature;humidity
790;DHT22;378;48.844;9.156;2023-06-14T00:00:15;15.90;91.90
790;DHT22;378;48.844;9.156;2023-06-14T00:02:42;15.90;92.20
790;DHT22;378;48.844;9.156;2023-06-14T00:05:10;15.90;92.40
790;DHT22;378;48.844;9.156;2023-06-14T00:07:40;15.80;92.40
790;DHT22;378;48.844;9.156;2023-06-14T00:10:09;15.70;92.30
790;DHT22;378;48.844;9.156;2023-06-14T00:12:36;15.70;92.30
790;DHT22;378;48.844;9.156;2023-06-14T00:15:04;15.70;92.60
790;DHT22;378;48.844;9.156;2023-06-14T00:17:31;15.70;92.80
790;DHT22;378;48.844;9.156;2023-06-14T00:19:59;15.60;92.80
790;DHT22;378;48.844;9.156;2023-06-14T00:22:29;15.50;92.90
790;DHT22;378;48.844;9.156;2023-06-14T00:24:56;15.50;93.10
790;DHT22;378;48.844;9.156;2023-06-14T00:27:23;15.40;93.20
790;DHT22;378;48.844;9.156;2023-06-14T00:29:50;15.40;93.60
790;DHT22;378;48.844;9.156;2023-06-14T00:32:18;15.20;93.70
790;DHT22;378;48.844;9.156;2023-06-14T00:34:45;15.20;94.00
790;DHT22;378;48.844;9.156;2023-06-14T00:37:12;15.20;94.50
790;DHT22;378;48.844;9.156;2023-06-14T00:39:40;15.20;94.60
790;DHT22;378;48.844;9.156;2023-06-14T00:42:07;15.20;95.10
790;DHT22;378;48.844;9.156;2023-06-14T00:44:34;15.20;95.20
790;DHT22;378;48.844;9.156;2023-06-14T00:47:00;15.20;95.50
790;DHT22;378;48.844;9.156;2023-06-14T00:49:29;15.10;95.60
790;DHT22;378;48.844;9.156;2023-06-14T00:51:56;15.10;95.70
790;DHT22;378;48.844;9.156;2023-06-14T00:54:23;15.10;95.90
790;DHT22;378;48.844;9.156;2023-06-14T00:56:51;15.10;96.50
790;DHT22;378;48.844;9.156;2023-06-14T00:59:18;15.10;96.50
790;DHT22;378;48.844;9.156;2023-06-14T01:01:45;15.10;96.20
790;DHT22;378;48.844;9.156;2023-06-14T01:04:11;15.00;96.20
790;DHT22;378;48.844;9.156;2023-06-14T01:06:44;15.00;96.50
790;DHT22;378;48.844;9.156;2023-06-14T01:09:20;14.90;96.50
790;DHT22;378;48.844;9.156;2023-06-14T01:11:54;14.90;96.70
790;DHT22;378;48.844;9.156;2023-06-14T01:14:25;14.90;96.90
790;DHT22;378;48.844;9.156;2023-06-14T01:16:54;14.80;97.50
790;DHT22;378;48.844;9.156;2023-06-14T01:19:23;14.80;98.10
790;DHT22;378;48.844;9.156;2023-06-14T01:21:51;14.80;98.50
790;DHT22;378;48.844;9.156;2023-06-14T01:24:19;14.70;98.40
790;DHT22;378;48.844;9.156;2023-06-14T01:26:52;14.70;98.80
790;DHT22;378;48.844;9.156;2023-06-14T01:29:22;14.70;99.50
790;DHT22;378;48.844;9.156;2023-06-14T01:31:51;14.60;99.90
790;DHT22;378;48.844;9.156;2023-06-14T01:34:18;14.60;99.90
790;DHT22;378;48.844;9.156;2023-06-14T01:36:45;14.50;99.90
790;DHT22;378;48.844;9.156;2023-06-14T01:39:14;14.50;99.90
790;DHT22;378;48.844;9.156;2023-06-14T01:41:43;14.40;99.90
790;DHT22;378;48.844;9.156;2023-06-14T01:44:12;14.40;99.90
790;DHT22;378;48.844;9.156;2023-06-14T01:46:41;14.40;99.90
790;DHT22;378;48.844;9.156;2023-06-14T01:49:08;14.40;99.90
790;DHT22;378;48.844;9.156;2023-06-14T01:51:35;14.40;99.90
790;DHT22;378;48.844;9.156;2023-06-14T01:54:02;14.30;99.90
790;DHT22;378;48.844;9.156;2023-06-14T01:56:29;14.30;99.90
790;DHT22;378;48.844;9.156;2023-06-14T01:58:57;14.30;99.90
790;DHT22;378;48.844;9.156;2023-06-14T02:01:24;14.30;99.90
790;DHT22;378;48.844;9.156;2023-06-14T02:03:51;14.30;99.90
790;DHT22;378;48.844;9.156;2023-06-14T02:06:19;14.20;99.90
790;DHT22;378;48.844;9.156;2023-06-14T02:08:46;14.20;99.90
790;DHT22;378;48.844;9.156;2023-06-14T02:11:12;14.20;99.90
790;DHT22;378;48.844;9.156;2023-06-14T02:13:39;14.20;99.90
790;DHT22;378;48.844;9.156;2023-06-14T02:16:07;14.10;99.90
790;DHT22;378;48.844;9.156;2023-06-14T02:18:35;14.00;99.90
790;DHT22;378;48.844;9.156;2023-06-14T02:21:02;14.00;99.90
790;DHT22;378;48.844;9.156;2023-06-14T02:23:29;14.00;99.90
790;DHT22;378;48.844;9.156;2023-06-14T02:25:57;13.90;99.90
790;DHT22;378;48.844;9.156;2023-06-14T02:28:24;13.90;99.90
790;DHT22;378;48.844;9.156;2023-06-14T02:30:51;13.90;99.90
790;DHT22;378;48.844;9.156;2023-06-14T02:33:19;13.90;99.90
790;DHT22;378;48.844;9.156;2023-06-14T02:35:47;13.90;99.90
790;DHT22;378;48.844;9.156;2023-06-14T02:38:14;13.90;99.90
790;DHT22;378;48.844;9.156;2023-06-14T02:40:41;13.90;99.90
790;DHT22;378;48.844;9.156;2023-06-14T02:43:08;13.90;99.90
790;DHT22;378;48.844;9.156;2023-06-14T02:45:35;13.90;99.90
790;DHT22;378;48.844;9.156;2023-06-14T02:48:02;13.90;99.90
790;DHT22;378;48.844;9.156;2023-06-14T02:50:30;13.90;99.90
790;DHT22;378;48.844;9.156;2023-06-14T02:52:57;13.80;99.90
790;DHT22;378;48.844;9.156;2023-06-14T02:55:24;13.80;99.90
790;DHT22;378;48.844;9.156;2023-06-14T02:57:51;13.70;99.90
790;DHT22;378;48.844;9.156;2023-06-14T03:00:19;13.70;99.90
790;DHT22;378;48.844;9.156;2023-06-14T03:02:46;13.70;99.90
790;DHT22;378;48.844;9.156;2023-06-14T03:05:13;13.60;99.90
790;DHT22;378;48.844;9.156;2023-06-14T03:07:41;13.60;99.90
790;DHT22;378;48.844;9.156;2023-06-14T03:10:10;13.60;99.90
790;DHT22;378;48.844;9.156;2023-06-14T03:12:38;13.50;99.90
790;DHT22;378;48.844;9.156;2023-06-14T03:15:06;13.50;99.90
790;DHT22;378;48.844;9.156;2023-06-14T03:17:33;13.50;99.90
790;DHT22;378;48.844;9.156;2023-06-14T03:20:00;13.50;99.90
790;DHT22;378;48.844;9.156;2023-06-14T03:22:27;13.40;99.90
790;DHT22;378;48.844;9.156;2023-06-14T03:24:56;13.30;99.90
790;DHT22;378;48.844;9.156;2023-06-14T03:27:24;13.30;99.90
790;DHT22;378;48.844;9.156;2023-06-14T03:29:54;13.30;99.90
790;DHT22;378;48.844;9.156;2023-06-14T03:32:20;13.20;99.90
790;DHT22;378;48.844;9.156;2023-06-14T03:34:47;13.10;99.90
790;DHT22;378;48.844;9.156;2023-06-14T03:37:14;13.20;99.90
790;DHT22;378;48.844;9.156;2023-06-14T03:39:41;13.20;99.90
790;DHT22;378;48.844;9.156;2023-06-14T03:42:13;13.20;99.90
790;DHT22;378;48.844;9.156;2023-06-14T03:44:40;13.30;99.90
790;DHT22;378;48.844;9.156;2023-06-14T03:47:07;13.30;99.90
790;DHT22;378;48.844;9.156;2023-06-14T03:49:34;13.20;99.90
790;DHT22;378;48.844;9.156;2023-06-14T03:52:02;13.20;99.90
790;DHT22;378;48.844;9.156;2023-06-14T03:54:29;13.20;99.90
790;DHT22;378;48.844;9.156;2023-06-14T03:56:58;13.10;99.90
790;DHT22;378;48.844;9.156;2023-06-14T03:59:26;13.10;99.90
790;DHT22;378;48.844;9.156;2023-06-14T04:01:54;13.20;99.90
790;DHT22;378;48.844;9.156;2023-06-14T04:04:21;13.30;99.90
790;DHT22;378;48.844;9.156;2023-06-14T04:06:54;13.30;99.90
790;DHT22;378;48.844;9.156;2023-06-14T04:09:22;13.40;99.90
790;DHT22;378;48.844;9.156;2023-06-14T04:11:50;13.50;99.90
790;DHT22;378;48.844;9.156;2023-06-14T04:14:17;13.70;99.90
790;DHT22;378;48.844;9.156;2023-06-14T04:16:45;13.80;99.90
790;DHT22;378;48.844;9.156;2023-06-14T04:19:12;13.90;99.90
790;DHT22;378;48.844;9.156;2023-06-14T04:21:39;14.10;99.90
790;DHT22;378;48.844;9.156;2023-06-14T04:24:06;14.30;99.90
790;DHT22;378;48.844;9.156;2023-06-14T04:26:38;14.50;99.90
790;DHT22;378;48.844;9.156;2023-06-14T04:29:05;14.60;99.90
790;DHT22;378;48.844;9.156;2023-06-14T04:31:32;14.70;99.90
790;DHT22;378;48.844;9.156;2023-06-14T04:34:01;14.90;99.90
790;DHT22;378;48.844;9.156;2023-06-14T04:36:31;15.00;99.90
790;DHT22;378;48.844;9.156;2023-06-14T04:39:00;15.20;99.90
790;DHT22;378;48.844;9.156;2023-06-14T04:41:28;15.30;99.90
790;DHT22;378;48.844;9.156;2023-06-14T04:43:56;15.40;99.90
790;DHT22;378;48.844;9.156;2023-06-14T04:46:27;15.50;99.90
790;DHT22;378;48.844;9.156;2023-06-14T04:48:54;15.60;99.90
790;DHT22;378;48.844;9.156;2023-06-14T04:51:23;15.70;99.90
790;DHT22;378;48.844;9.156;2023-06-14T04:53:55;16.30;99.90
790;DHT22;378;48.844;9.156;2023-06-14T04:56:22;17.30;99.90
790;DHT22;378;48.844;9.156;2023-06-14T04:58:50;18.10;99.90
790;DHT22;378;48.844;9.156;2023-06-14T05:01:18;18.80;99.90
790;DHT22;378;48.844;9.156;2023-06-14T05:03:45;19.00;99.90
790;DHT22;378;48.844;9.156;2023-06-14T05:06:14;18.80;99.90
790;DHT22;378;48.844;9.156;2023-06-14T05:08:42;19.30;99.90
790;DHT22;378;48.844;9.156;2023-06-14T05:11:09;19.70;99.90
790;DHT22;378;48.844;9.156;2023-06-14T05:13:35;19.80;99.90
790;DHT22;378;48.844;9.156;2023-06-14T05:16:03;20.20;99.90
790;DHT22;378;48.844;9.156;2023-06-14T05:18:30;20.20;99.90
790;DHT22;378;48.844;9.156;2023-06-14T05:20:56;20.20;99.70
790;DHT22;378;48.844;9.156;2023-06-14T05:23:23;20.40;99.50
790;DHT22;378;48.844;9.156;2023-06-14T05:25:51;20.30;99.50
790;DHT22;378;48.844;9.156;2023-06-14T05:28:18;20.20;99.60
790;DHT22;378;48.844;9.156;2023-06-14T05:30:46;20.40;98.70
790;DHT22;378;48.844;9.156;2023-06-14T05:33:13;20.60;98.80
790;DHT22;378;48.844;9.156;2023-06-14T05:35:39;21.10;98.20
790;DHT22;378;48.844;9.156;2023-06-14T05:38:06;21.20;98.20
790;DHT22;378;48.844;9.156;2023-06-14T05:40:33;21.60;97.50
790;DHT22;378;48.844;9.156;2023-06-14T05:43:01;21.60;96.80
790;DHT22;378;48.844;9.156;2023-06-14T05:45:28;21.80;96.60
790;DHT22;378;48.844;9.156;2023-06-14T05:47:55;22.10;96.60
790;DHT22;378;48.844;9.156;2023-06-14T05:50:22;22.00;96.50
790;DHT22;378;48.844;9.156;2023-06-14T05:52:49;21.90;95.60
790;DHT22;378;48.844;9.156;2023-06-14T05:55:17;21.60;95.60
790;DHT22;378;48.844;9.156;2023-06-14T05:57:44;21.80;95.70
790;DHT22;378;48.844;9.156;2023-06-14T06:00:13;22.30;95.00
790;DHT22;378;48.844;9.156;2023-06-14T06:02:41;22.10;95.20
790;DHT22;378;48.844;9.156;2023-06-14T06:05:09;22.30;95.00
790;DHT22;378;48.844;9.156;2023-06-14T06:07:36;22.70;94.50
790;DHT22;378;48.844;9.156;2023-06-14T06:10:04;22.90;94.20
790;DHT22;378;48.844;9.156;2023-06-14T06:12:31;22.40;93.80
790;DHT22;378;48.844;9.156;2023-06-14T06:14:59;22.20;94.70
790;DHT22;378;48.844;9.156;2023-06-14T06:17:27;22.40;94.20
790;DHT22;378;48.844;9.156;2023-06-14T06:19:54;22.80;93.90
790;DHT22;378;48.844;9.156;2023-06-14T06:22:21;22.90;93.00
790;DHT22;378;48.844;9.156;2023-06-14T06:24:49;22.70;93.10
790;DHT22;378;48.844;9.156;2023-06-14T06:27:16;23.10;93.40
790;DHT22;378;48.844;9.156;2023-06-14T06:29:44;23.30;92.30
790;DHT22;378;48.844;9.156;2023-06-14T06:32:11;23.10;92.50
790;DHT22;378;48.844;9.156;2023-06-14T06:34:39;23.20;92.10
790;DHT22;378;48.844;9.156;2023-06-14T06:37:06;23.50;92.10
790;DHT22;378;48.844;9.156;2023-06-14T06:39:33;23.90;91.70
790;DHT22;378;48.844;9.156;2023-06-14T06:42:00;23.80;91.10
790;DHT22;378;48.844;9.156;2023-06-14T06:44:27;23.90;90.60
790;DHT22;378;48.844;9.156;2023-06-14T06:46:54;23.30;90.70
790;DHT22;378;48.844;9.156;2023-06-14T06:49:21;22.70;91.70
790;DHT22;378;48.844;9.156;2023-06-14T06:52:01;23.50;90.80
790;DHT22;378;48.844;9.156;2023-06-14T06:54:28;23.60;90.60
790;DHT22;378;48.844;9.156;2023-06-14T06:56:55;23.70;90.00
790;DHT22;378;48.844;9.156;2023-06-14T06:59:22;23.90;90.10
790;DHT22;378;48.844;9.156;2023-06-14T07:01:49;24.50;89.70
790;DHT22;378;48.844;9.156;2023-06-14T07:04:16;25.00;88.80
790;DHT22;378;48.844;9.156;2023-06-14T07:06:43;25.30;88.30
790;DHT22;378;48.844;9.156;2023-06-14T07:09:11;25.00;87.20
790;DHT22;378;48.844;9.156;2023-06-14T07:11:40;25.30;86.60
790;DHT22;378;48.844;9.156;2023-06-14T07:14:07;25.90;86.20
790;DHT22;378;48.844;9.156;2023-06-14T07:16:33;25.60;85.80
790;DHT22;378;48.844;9.156;2023-06-14T07:19:01;25.70;85.90
790;DHT22;378;48.844;9.156;2023-06-14T07:21:28;25.80;85.30
790;DHT22;378;48.844;9.156;2023-06-14T07:23:55;25.90;85.10
790;DHT22;378;48.844;9.156;2023-06-14T07:26:23;25.90;83.20
790;DHT22;378;48.844;9.156;2023-06-14T07:28:51;26.10;85.00
790;DHT22;378;48.844;9.156;2023-06-14T07:31:18;26.30;83.90
790;DHT22;378;48.844;9.156;2023-06-14T07:33:45;26.30;84.40
790;DHT22;378;48.844;9.156;2023-06-14T07:36:12;25.90;85.00
790;DHT22;378;48.844;9.156;2023-06-14T07:38:39;26.40;83.90
790;DHT22;378;48.844;9.156;2023-06-14T07:41:07;26.30;84.40
790;DHT22;378;48.844;9.156;2023-06-14T07:43:35;26.20;83.60
790;DHT22;378;48.844;9.156;2023-06-14T07:46:02;26.60;84.40
790;DHT22;378;48.844;9.156;2023-06-14T07:48:29;26.80;83.70
790;DHT22;378;48.844;9.156;2023-06-14T07:50:55;27.10;84.10
790;DHT22;378;48.844;9.156;2023-06-14T07:53:22;26.00;83.20
790;DHT22;378;48.844;9.156;2023-06-14T07:55:49;25.70;84.80
790;DHT22;378;48.844;9.156;2023-06-14T07:58:16;26.10;84.30
790;DHT22;378;48.844;9.156;2023-06-14T08:00:44;26.70;83.80
790;DHT22;378;48.844;9.156;2023-06-14T08:03:11;27.30;84.30
790;DHT22;378;48.844;9.156;2023-06-14T08:05:38;27.90;80.50
790;DHT22;378;48.844;9.156;2023-06-14T08:08:05;28.90;80.20
790;DHT22;378;48.844;9.156;2023-06-14T08:10:32;29.30;78.60
790;DHT22;378;48.844;9.156;2023-06-14T08:12:59;28.80;78.80
790;DHT22;378;48.844;9.156;2023-06-14T08:15:26;29.10;78.80
790;DHT22;378;48.844;9.156;2023-06-14T08:17:54;29.00;78.50
790;DHT22;378;48.844;9.156;2023-06-14T08:20:21;28.60;78.60
790;DHT22;378;48.844;9.156;2023-06-14T08:22:49;28.80;78.20
790;DHT22;378;48.844;9.156;2023-06-14T08:25:20;28.80;77.90
790;DHT22;378;48.844;9.156;2023-06-14T08:27:47;28.50;79.10
790;DHT22;378;48.844;9.156;2023-06-14T08:30:15;28.90;79.30
790;DHT22;378;48.844;9.156;2023-06-14T08:32:42;29.70;79.10
790;DHT22;378;48.844;9.156;2023-06-14T08:35:11;30.10;78.20
790;DHT22;378;48.844;9.156;2023-06-14T08:37:38;30.10;77.40
790;DHT22;378;48.844;9.156;2023-06-14T08:40:16;30.50;75.80
790;DHT22;378;48.844;9.156;2023-06-14T08:42:44;31.00;74.40
790;DHT22;378;48.844;9.156;2023-06-14T08:45:12;30.90;74.50
790;DHT22;378;48.844;9.156;2023-06-14T08:47:40;30.30;75.80
790;DHT22;378;48.844;9.156;2023-06-14T08:50:07;29.30;74.60
790;DHT22;378;48.844;9.156;2023-06-14T08:52:38;29.50;75.70
790;DHT22;378;48.844;9.156;2023-06-14T08:55:11;29.30;75.60
790;DHT22;378;48.844;9.156;2023-06-14T08:57:39;29.40;76.00
790;DHT22;378;48.844;9.156;2023-06-14T09:00:07;28.80;77.80
790;DHT22;378;48.844;9.156;2023-06-14T09:02:38;29.20;76.70
790;DHT22;378;48.844;9.156;2023-06-14T09:05:09;29.40;76.10
790;DHT22;378;48.844;9.156;2023-06-14T09:07:37;30.50;74.60
790;DHT22;378;48.844;9.156;2023-06-14T09:10:10;30.70;73.30
790;DHT22;378;48.844;9.156;2023-06-14T09:12:37;30.90;71.90
790;DHT22;378;48.844;9.156;2023-06-14T09:15:06;30.40;72.10
790;DHT22;378;48.844;9.156;2023-06-14T09:17:34;30.10;74.00
790;DHT22;378;48.844;9.156;2023-06-14T09:20:01;30.20;76.40
790;DHT22;378;48.844;9.156;2023-06-14T09:22:31;30.40;74.80
790;DHT22;378;48.844;9.156;2023-06-14T09:25:00;30.70;74.70
790;DHT22;378;48.844;9.156;2023-06-14T09:27:27;30.50;74.20
790;DHT22;378;48.844;9.156;2023-06-14T09:29:54;30.60;73.20
790;DHT22;378;48.844;9.156;2023-06-14T09:32:21;30.40;71.50
790;DHT22;378;48.844;9.156;2023-06-14T09:34:48;30.50;75.10
790;DHT22;378;48.844;9.156;2023-06-14T09:37:27;31.40;74.20
790;DHT22;378;48.844;9.156;2023-06-14T09:39:54;32.20;70.70
790;DHT22;378;48.844;9.156;2023-06-14T09:42:23;31.90;71.30
790;DHT22;378;48.844;9.156;2023-06-14T09:44:52;32.20;69.70
790;DHT22;378;48.844;9.156;2023-06-14T09:47:19;32.20;70.70
790;DHT22;378;48.844;9.156;2023-06-14T09:49:46;32.40;69.60
790;DHT22;378;48.844;9.156;2023-06-14T09:52:15;33.00;70.00
790;DHT22;378;48.844;9.156;2023-06-14T09:54:43;32.60;67.20
790;DHT22;378;48.844;9.156;2023-06-14T09:57:13;32.30;69.70
790;DHT22;378;48.844;9.156;2023-06-14T09:59:42;32.30;68.80
790;DHT22;378;48.844;9.156;2023-06-14T10:02:14;31.30;68.00
790;DHT22;378;48.844;9.156;2023-06-14T10:04:47;30.60;71.90
790;DHT22;378;48.844;9.156;2023-06-14T10:07:19;31.40;71.70
790;DHT22;378;48.844;9.156;2023-06-14T10:09:47;32.10;69.00
790;DHT22;378;48.844;9.156;2023-06-14T10:12:16;32.30;69.10
790;DHT22;378;48.844;9.156;2023-06-14T10:14:49;32.80;68.50
790;DHT22;378;48.844;9.156;2023-06-14T10:17:23;32.20;65.10
790;DHT22;378;48.844;9.156;2023-06-14T10:19:55;31.00;65.00
790;DHT22;378;48.844;9.156;2023-06-14T10:22:34;30.30;65.30
790;DHT22;378;48.844;9.156;2023-06-14T10:25:07;30.30;65.50
790;DHT22;378;48.844;9.156;2023-06-14T10:27:37;29.60;65.10
790;DHT22;378;48.844;9.156;2023-06-14T10:30:07;28.90;68.20
790;DHT22;378;48.844;9.156;2023-06-14T10:32:34;28.10;69.10
790;DHT22;378;48.844;9.156;2023-06-14T10:35:04;27.80;71.40
790;DHT22;378;48.844;9.156;2023-06-14T10:37:32;27.20;71.70
790;DHT22;378;48.844;9.156;2023-06-14T10:39:59;26.90;70.50
790;DHT22;378;48.844;9.156;2023-06-14T10:42:29;27.70;70.40
790;DHT22;378;48.844;9.156;2023-06-14T10:44:58;29.20;69.10
790;DHT22;378;48.844;9.156;2023-06-14T10:47:28;29.40;68.10
790;DHT22;378;48.844;9.156;2023-06-14T10:49:57;29.70;66.60
790;DHT22;378;48.844;9.156;2023-06-14T10:52:31;29.70;65.40
790;DHT22;378;48.844;9.156;2023-06-14T10:55:06;30.30;65.50
790;DHT22;378;48.844;9.156;2023-06-14T10:57:35;31.40;62.20
790;DHT22;378;48.844;9.156;2023-06-14T11:00:03;32.40;60.90
790;DHT22;378;48.844;9.156;2023-06-14T11:05:44;32.60;59.50
790;DHT22;378;48.844;9.156;2023-06-14T11:08:51;33.40;58.80
790;DHT22;378;48.844;9.156;2023-06-14T11:11:23;31.80;58.50
790;DHT22;378;48.844;9.156;2023-06-14T11:13:51;30.60;61.10
790;DHT22;378;48.844;9.156;2023-06-14T11:16:19;29.90;61.40
790;DHT22;378;48.844;9.156;2023-06-14T11:18:47;28.60;62.20
790;DHT22;378;48.844;9.156;2023-06-14T11:21:18;28.00;63.50
790;DHT22;378;48.844;9.156;2023-06-14T11:23:49;27.30;64.40
790;DHT22;378;48.844;9.156;2023-06-14T11:26:24;27.20;65.40
790;DHT22;378;48.844;9.156;2023-06-14T11:28:55;29.00;65.00
790;DHT22;378;48.844;9.156;2023-06-14T11:31:22;30.00;61.80
790;DHT22;378;48.844;9.156;2023-06-14T11:33:51;31.30;62.60
790;DHT22;378;48.844;9.156;2023-06-14T11:36:19;32.90;60.40
790;DHT22;378;48.844;9.156;2023-06-14T11:38:46;33.60;58.40
790;DHT22;378;48.844;9.156;2023-06-14T11:41:13;33.10;57.50
790;DHT22;378;48.844;9.156;2023-06-14T11:43:40;33.40;58.40
790;DHT22;378;48.844;9.156;2023-06-14T11:46:12;33.30;58.30
790;DHT22;378;48.844;9.156;2023-06-14T11:48:41;32.00;58.90
790;DHT22;378;48.844;9.156;2023-06-14T11:51:10;32.20;58.70
790;DHT22;378;48.844;9.156;2023-06-14T11:53:37;32.60;58.30
790;DHT22;378;48.844;9.156;2023-06-14T11:56:05;33.40;57.40
790;DHT22;378;48.844;9.156;2023-06-14T11:58:32;34.60;57.40
790;DHT22;378;48.844;9.156;2023-06-14T12:00:59;36.30;55.80
790;DHT22;378;48.844;9.156;2023-06-14T12:03:26;37.60;54.00
790;DHT22;378;48.844;9.156;2023-06-14T12:06:03;38.60;52.90
790;DHT22;378;48.844;9.156;2023-06-14T12:08:35;38.50;53.10
790;DHT22;378;48.844;9.156;2023-06-14T12:11:04;36.80;53.30
790;DHT22;378;48.844;9.156;2023-06-14T12:13:31;36.20;53.80
790;DHT22;378;48.844;9.156;2023-06-14T12:15:58;35.30;53.90
790;DHT22;378;48.844;9.156;2023-06-14T12:18:32;35.80;54.20
790;DHT22;378;48.844;9.156;2023-06-14T12:21:00;36.50;53.10
790;DHT22;378;48.844;9.156;2023-06-14T12:23:42;36.20;53.20
790;DHT22;378;48.844;9.156;2023-06-14T12:26:08;36.50;52.90
790;DHT22;378;48.844;9.156;2023-06-14T12:28:35;37.00;52.50
790;DHT22;378;48.844;9.156;2023-06-14T12:31:02;36.60;52.50
790;DHT22;378;48.844;9.156;2023-06-14T12:33:30;36.80;52.30
790;DHT22;378;48.844;9.156;2023-06-14T12:35:57;37.50;51.10
790;DHT22;378;48.844;9.156;2023-06-14T12:38:24;36.20;50.70
790;DHT22;378;48.844;9.156;2023-06-14T12:40:52;35.10;51.80
790;DHT22;378;48.844;9.156;2023-06-14T12:43:19;35.40;53.10
790;DHT22;378;48.844;9.156;2023-06-14T12:45:46;36.60;53.10
790;DHT22;378;48.844;9.156;2023-06-14T12:48:13;36.90;51.60
790;DHT22;378;48.844;9.156;2023-06-14T12:50:40;35.70;52.40
790;DHT22;378;48.844;9.156;2023-06-14T12:53:07;32.80;53.50
790;DHT22;378;48.844;9.156;2023-06-14T12:55:34;31.60;56.60
790;DHT22;378;48.844;9.156;2023-06-14T12:58:02;30.50;57.60
790;DHT22;378;48.844;9.156;2023-06-14T13:00:29;29.60;59.10
790;DHT22;378;48.844;9.156;2023-06-14T13:02:56;28.80;59.00
790;DHT22;378;48.844;9.156;2023-06-14T13:05:23;28.30;60.70
790;DHT22;378;48.844;9.156;2023-06-14T13:07:51;29.00;62.10
790;DHT22;378;48.844;9.156;2023-06-14T13:10:18;31.20;59.20
790;DHT22;378;48.844;9.156;2023-06-14T13:12:44;33.40;56.70
790;DHT22;378;48.844;9.156;2023-06-14T13:15:13;34.70;54.50
790;DHT22;378;48.844;9.156;2023-06-14T13:17:40;35.50;52.70
790;DHT22;378;48.844;9.156;2023-06-14T13:20:09;36.10;52.70
790;DHT22;378;48.844;9.156;2023-06-14T13:22:37;36.40;51.20
790;DHT22;378;48.844;9.156;2023-06-14T13:25:06;36.50;51.40
790;DHT22;378;48.844;9.156;2023-06-14T13:27:32;36.90;51.10
790;DHT22;378;48.844;9.156;2023-06-14T13:30:00;37.30;50.30
790;DHT22;378;48.844;9.156;2023-06-14T13:32:28;37.70;50.70
790;DHT22;378;48.844;9.156;2023-06-14T13:34:55;38.40;50.40
790;DHT22;378;48.844;9.156;2023-06-14T13:37:22;38.50;50.20
790;DHT22;378;48.844;9.156;2023-06-14T13:39:49;38.40;48.80
790;DHT22;378;48.844;9.156;2023-06-14T13:42:16;39.00;48.80
790;DHT22;378;48.844;9.156;2023-06-14T13:44:43;38.30;48.70
790;DHT22;378;48.844;9.156;2023-06-14T13:47:10;37.90;49.10
790;DHT22;378;48.844;9.156;2023-06-14T13:49:39;38.40;49.70
790;DHT22;378;48.844;9.156;2023-06-14T13:52:06;37.40;49.90
790;DHT22;378;48.844;9.156;2023-06-14T13:54:33;35.90;50.70
790;DHT22;378;48.844;9.156;2023-06-14T13:57:01;35.30;53.40
790;DHT22;378;48.844;9.156;2023-06-14T13:59:28;35.70;53.40
790;DHT22;378;48.844;9.156;2023-06-14T14:01:55;35.90;51.50
790;DHT22;378;48.844;9.156;2023-06-14T14:04:22;35.60;52.60
790;DHT22;378;48.844;9.156;2023-06-14T14:06:50;35.80;52.50
790;DHT22;378;48.844;9.156;2023-06-14T14:09:17;36.20;52.50
790;DHT22;378;48.844;9.156;2023-06-14T14:11:44;36.50;51.30
790;DHT22;378;48.844;9.156;2023-06-14T14:14:11;36.80;50.90
790;DHT22;378;48.844;9.156;2023-06-14T14:16:38;35.50;51.00
790;DHT22;378;48.844;9.156;2023-06-14T14:19:05;33.90;52.70
790;DHT22;378;48.844;9.156;2023-06-14T14:21:32;33.80;53.80
790;DHT22;378;48.844;9.156;2023-06-14T14:24:00;34.70;53.20
790;DHT22;378;48.844;9.156;2023-06-14T14:26:27;36.00;50.80
790;DHT22;378;48.844;9.156;2023-06-14T14:28:54;35.60;51.20
790;DHT22;378;48.844;9.156;2023-06-14T14:31:21;35.20;52.20
790;DHT22;378;48.844;9.156;2023-06-14T14:33:48;35.40;51.40
790;DHT22;378;48.844;9.156;2023-06-14T14:36:14;36.60;51.80
790;DHT22;378;48.844;9.156;2023-06-14T14:38:41;36.60;51.80
790;DHT22;378;48.844;9.156;2023-06-14T14:41:10;37.00;52.20
790;DHT22;378;48.844;9.156;2023-06-14T14:43:36;37.00;52.00
790;DHT22;378;48.844;9.156;2023-06-14T14:46:03;37.00;51.60
790;DHT22;378;48.844;9.156;2023-06-14T14:48:30;36.60;51.10
790;DHT22;378;48.844;9.156;2023-06-14T14:50:57;36.90;51.00
790;DHT22;378;48.844;9.156;2023-06-14T14:53:24;37.10;51.20
790;DHT22;378;48.844;9.156;2023-06-14T14:55:51;36.50;51.40
790;DHT22;378;48.844;9.156;2023-06-14T14:58:19;36.00;51.10
790;DHT22;378;48.844;9.156;2023-06-14T15:00:46;35.80;52.30
790;DHT22;378;48.844;9.156;2023-06-14T15:03:13;36.60;51.50
790;DHT22;378;48.844;9.156;2023-06-14T15:05:40;36.10;51.30
790;DHT22;378;48.844;9.156;2023-06-14T15:08:07;36.80;51.10
790;DHT22;378;48.844;9.156;2023-06-14T15:10:37;36.20;49.90
790;DHT22;378;48.844;9.156;2023-06-14T15:13:06;36.90;50.10
790;DHT22;378;48.844;9.156;2023-06-14T15:15:34;37.30;50.90
790;DHT22;378;48.844;9.156;2023-06-14T15:18:02;36.50;49.70
790;DHT22;378;48.844;9.156;2023-06-14T15:20:29;36.00;50.50
790;DHT22;378;48.844;9.156;2023-06-14T15:22:56;36.30;50.60
790;DHT22;378;48.844;9.156;2023-06-14T15:25:25;35.10;50.90
790;DHT22;378;48.844;9.156;2023-06-14T15:27:52;33.90;52.90
790;DHT22;378;48.844;9.156;2023-06-14T15:30:19;33.40;53.20
790;DHT22;378;48.844;9.156;2023-06-14T15:32:47;32.50;53.40
790;DHT22;378;48.844;9.156;2023-06-14T15:35:16;31.90;53.80
790;DHT22;378;48.844;9.156;2023-06-14T15:37:43;30.20;56.80
790;DHT22;378;48.844;9.156;2023-06-14T15:40:10;29.00;57.40
790;DHT22;378;48.844;9.156;2023-06-14T15:42:37;28.20;58.30
790;DHT22;378;48.844;9.156;2023-06-14T15:45:05;27.80;59.60
790;DHT22;378;48.844;9.156;2023-06-14T15:47:31;27.50;60.00
790;DHT22;378;48.844;9.156;2023-06-14T15:50:00;27.30;61.00
790;DHT22;378;48.844;9.156;2023-06-14T15:52:26;27.00;62.00
790;DHT22;378;48.844;9.156;2023-06-14T15:54:53;27.20;61.50
790;DHT22;378;48.844;9.156;2023-06-14T15:57:20;28.80;60.30
790;DHT22;378;48.844;9.156;2023-06-14T15:59:47;30.70;58.90
790;DHT22;378;48.844;9.156;2023-06-14T16:02:14;31.80;56.90
790;DHT22;378;48.844;9.156;2023-06-14T16:04:41;30.60;56.20
790;DHT22;378;48.844;9.156;2023-06-14T16:07:09;29.60;58.10
790;DHT22;378;48.844;9.156;2023-06-14T16:09:38;29.00;58.60
790;DHT22;378;48.844;9.156;2023-06-14T16:12:05;29.00;58.70
790;DHT22;378;48.844;9.156;2023-06-14T16:14:32;29.50;58.90
790;DHT22;378;48.844;9.156;2023-06-14T16:16:59;30.10;58.10
790;DHT22;378;48.844;9.156;2023-06-14T16:19:26;30.50;58.30
790;DHT22;378;48.844;9.156;2023-06-14T16:21:53;30.40;57.10
790;DHT22;378;48.844;9.156;2023-06-14T16:24:21;29.60;58.10
790;DHT22;378;48.844;9.156;2023-06-14T16:26:48;29.00;58.30
790;DHT22;378;48.844;9.156;2023-06-14T16:29:15;28.40;59.50
790;DHT22;378;48.844;9.156;2023-06-14T16:31:42;28.00;61.30
790;DHT22;378;48.844;9.156;2023-06-14T16:34:09;27.50;62.00
790;DHT22;378;48.844;9.156;2023-06-14T16:36:36;27.20;62.80
790;DHT22;378;48.844;9.156;2023-06-14T16:39:03;26.80;63.70
790;DHT22;378;48.844;9.156;2023-06-14T16:41:32;26.50;65.10